CheckWX is a tool to help pilots better visualize weather data.  It is not intended as a substitute for an official pre-flight weather briefing.

12:04:12 UTC

N03 METAR
Cortland County-Chase Field Airport
Cortland, New York, USA
Current

9 mins ago

KN03 201155Z AUTO 00000KT M1/4SM FG OVC001 15/15 A3016 RMK AO2
Observed
Aug-20 @ 11:55 UTC
Visibility
1/4 SM
Flight Rules
LIFR
Conditions
Fog
Cloud Levels
  • Overcast at 100' AGL
Temperature
15°C / 59°F
Dewpoint
15°C / 59°F
Humidity
100%
Altimeter
30.16" Hg
Pressure
1021.32 hPa
Previous

29 mins ago

KN03 201135Z AUTO 00000KT M1/4SM FG OVC001 14/14 A3016 RMK AO2
Observed
Aug-20 @ 11:35 UTC
Visibility
1/4 SM
Flight Rules
LIFR
Conditions
Fog
Cloud Levels
  • Overcast at 100' AGL
Temperature
14°C / 57°F
Dewpoint
14°C / 57°F
Humidity
100%
Altimeter
30.16" Hg
Pressure
1021.32 hPa
Previous

49 mins ago

KN03 201115Z AUTO 00000KT 1/4SM FG OVC001 14/14 A3016 RMK AO2
Observed
Aug-20 @ 11:15 UTC
Visibility
1/4 SM
Flight Rules
LIFR
Conditions
Fog
Cloud Levels
  • Overcast at 100' AGL
Temperature
14°C / 57°F
Dewpoint
14°C / 57°F
Humidity
100%
Altimeter
30.16" Hg
Pressure
1021.32 hPa